Virgil, South Dakota
Current Conditions -  °F | °C
As of 5:12 PM on Wednesday 22 Oct 2014 (Local Time) from KHON Reporting Station
Overcast Overcast  
Wind Chill: 57°   Ceiling: 1600
Heat Index: 57°   Visibility: 10mi
Dew Point: 53°   Wind: 6mph
Humidity: 87%   Direction: 270°W
Pressure: 29.94"   Gusts: NA
Location:  44.29°N, 98.42°W
Report Text: KHON 222212Z AUTO 27005KT 10SM BKN016 OVC044 14/12 A2994 RMK AO2 T01390117
Loading
Personal Weather Stations






























Interactive Weather Map New forecast layout! Learn more

10-Day Weather Forecast

Advertisements
Track Severe Weather on mobile